Time;durP1;ratioP1;P1;durP2;ratioP2;P2;SDS_P1;SDS_P2;PMS_P1;PMS_P2;Temp;Humidity;BMP_temperature;BMP_pressure;BME280_temperature;BME280_humidity;BME280_pressure;Samples;Min_cycle;Max_cycle;Signal;HPM_P1;HPM_P2
2022/09/21 00:01:27;;;;;;;3.47;3.10;;;;;;;7.24;87.61;95733.48;1750931;82;21037;-72
2022/09/21 00:03:56;;;;;;;5.60;2.67;;;;;;;7.30;87.96;95738.25;1719711;83;21492;-72
2022/09/21 00:06:26;;;;;;;4.77;2.60;;;;;;;7.42;88.08;95738.66;1750954;82;20978;-72
2022/09/21 00:08:54;;;;;;;4.93;2.30;;;;;;;7.51;88.08;95736.41;1719401;83;21036;-72
2022/09/21 00:11:27;;;;;;;4.17;2.13;;;;;;;7.58;87.85;95739.03;1750930;82;21017;-72
2022/09/21 00:13:58;;;;;;;3.00;2.40;;;;;;;7.65;87.40;95737.23;1719742;83;21018;-73
2022/09/21 00:16:25;;;;;;;2.00;1.70;;;;;;;7.70;87.41;95739.39;1750968;82;21054;-72
2022/09/21 00:18:51;;;;;;;1.90;1.43;;;;;;;7.74;86.98;95743.77;1719565;83;21019;-72
2022/09/21 00:21:20;;;;;;;4.53;1.53;;;;;;;7.75;86.63;95744.62;1750702;82;21002;-72
2022/09/21 00:23:46;;;;;;;1.67;1.40;;;;;;;7.69;85.84;95740.28;1720182;83;21042;-72
2022/09/21 00:26:18;;;;;;;1.47;1.37;;;;;;;7.56;85.43;95742.09;1750865;82;21018;-72
2022/09/21 00:28:45;;;;;;;1.87;1.40;;;;;;;7.54;85.90;95749.55;1719356;83;21034;-72
2022/09/21 00:31:15;;;;;;;1.97;1.30;;;;;;;7.50;85.42;95746.05;1750855;82;21003;-72
2022/09/21 00:33:43;;;;;;;1.17;1.00;;;;;;;7.46;85.46;95746.96;1719656;83;21035;-72
2022/09/21 00:36:16;;;;;;;3.90;1.10;;;;;;;7.46;85.85;95745.65;1750833;82;20986;-72
2022/09/21 00:38:45;;;;;;;4.12;1.15;;;;;;;7.59;86.53;95746.47;1719509;83;21031;-72
2022/09/21 00:41:12;;;;;;;1.83;1.20;;;;;;;7.59;86.53;95746.47;1750947;82;21539;-72
2022/09/21 00:44:07;;;;;;;1.40;1.17;;;;;;;7.67;86.41;95743.80;1719492;83;21509;-71
2022/09/21 00:46:36;;;;;;;2.67;1.20;;;;;;;7.69;85.85;95742.91;1750865;82;20983;-72
2022/09/21 00:49:03;;;;;;;1.60;1.30;;;;;;;7.62;85.05;95745.13;1719131;83;21014;-72
2022/09/21 00:51:30;;;;;;;1.87;1.57;;;;;;;7.62;85.16;95745.58;1750909;82;20990;-72
2022/09/21 00:54:02;;;;;;;2.87;1.37;;;;;;;7.58;85.32;95740.34;1719675;83;21054;-73
2022/09/21 00:56:29;;;;;;;2.50;1.50;;;;;;;7.54;85.45;95740.36;1750977;82;21001;-72
2022/09/21 00:58:57;;;;;;;2.07;1.60;;;;;;;7.51;85.74;95737.31;1719519;83;21437;-72
2022/09/21 01:01:23;;;;;;;3.13;1.57;;;;;;;7.52;86.02;95738.17;1750647;82;20971;-73
2022/09/21 01:03:51;;;;;;;1.47;1.37;;;;;;;7.55;86.07;95738.16;1719506;83;21109;-72
2022/09/21 01:06:21;;;;;;;1.20;1.10;;;;;;;7.51;85.79;95741.66;1730117;82;21006;-72
2022/09/21 01:08:52;;;;;;;2.80;1.20;;;;;;;7.55;86.66;95740.78;1719671;83;21546;-72
2022/09/21 01:11:42;;;;;;;1.50;1.00;;;;;;;7.59;86.17;95734.20;1750708;82;21010;-72
2022/09/21 01:14:29;;;;;;;3.03;1.37;;;;;;;7.64;86.01;95735.94;1719261;83;21097;-72
2022/09/21 01:17:14;;;;;;;2.63;1.57;;;;;;;7.65;86.12;95731.98;1724972;82;21002;-72
2022/09/21 01:20:35;;;;;;;1.53;1.40;;;;;;;7.61;85.35;95732.00;1719596;83;21599;-72
2022/09/21 01:23:13;;;;;;;3.77;1.37;;;;;;;7.58;85.64;95735.09;1751042;82;21508;-72
2022/09/21 01:26:19;;;;;;;2.13;1.30;;;;;;;7.59;85.81;95735.52;1719576;83;21327;-72
2022/09/21 01:29:16;;;;;;;1.33;1.23;;;;;;;7.61;86.49;95730.27;1751110;82;21016;-73
2022/09/21 01:32:06;;;;;;;1.20;1.03;;;;;;;7.78;87.05;95731.02;1705465;83;21486;-73
2022/09/21 01:35:05;;;;;;;2.17;1.60;;;;;;;7.76;85.57;95730.19;1694391;84;21526;-73
2022/09/21 01:37:43;;;;;;;2.00;1.50;;;;;;;7.69;85.31;95727.60;1696005;84;21042;-72
2022/09/21 01:40:15;;;;;;;2.07;1.50;;;;;;;7.66;85.51;95731.12;1717702;83;21070;-72
2022/09/21 01:42:45;;;;;;;1.90;1.20;;;;;;;7.75;86.10;95724.93;1699799;84;20990;-72
2022/09/21 01:45:16;;;;;;;3.83;1.40;;;;;;;7.74;85.47;95725.37;1699362;84;21025;-72
2022/09/21 01:47:48;;;;;;;3.27;1.50;;;;;;;7.78;86.36;95716.58;1699489;84;21059;-72
2022/09/21 01:50:19;;;;;;;2.13;1.50;;;;;;;7.84;86.26;95727.93;1697007;84;21034;-72
2022/09/21 01:52:54;;;;;;;3.20;1.40;;;;;;;7.84;86.29;95729.24;1699095;84;21459;-72
2022/09/21 01:55:28;;;;;;;3.50;1.15;;;;;;;7.88;86.14;95733.16;1699031;84;21097;-71
2022/09/21 01:58:13;;;;;;;1.30;1.10;;;;;;;7.91;85.88;95731.86;1699523;84;21021;-72
2022/09/21 02:00:42;;;;;;;1.33;0.93;;;;;;;7.86;85.05;95735.37;1699245;84;21030;-72
2022/09/21 02:03:26;;;;;;;1.20;1.10;;;;;;;7.75;85.17;95732.36;1699524;84;21432;-72
2022/09/21 02:05:53;;;;;;;2.43;1.20;;;;;;;7.71;85.38;95733.28;1699663;84;21061;-72
2022/09/21 02:08:20;;;;;;;1.30;1.20;;;;;;;7.63;85.49;95737.67;1699409;84;21021;-72
2022/09/21 02:10:52;;;;;;;2.80;1.40;;;;;;;7.56;85.33;95736.85;1699559;84;21133;-72
2022/09/21 02:13:24;;;;;;;1.30;1.20;;;;;;;7.56;85.67;95736.85;1699490;84;21001;-72
2022/09/21 02:16:30;;;;;;;3.30;2.90;;;;;;;7.49;86.32;95732.50;1699447;84;21034;-72
2022/09/21 02:19:23;;;;;;;3.43;1.60;;;;;;;7.41;86.21;95735.61;1699513;84;21022;-72
2022/09/21 02:22:04;;;;;;;4.10;1.32;;;;;;;7.36;86.07;95736.93;1699557;84;21026;-72
2022/09/21 02:24:42;;;;;;;3.13;1.80;;;;;;;7.35;86.31;95738.23;1699345;84;21547;-72
2022/09/21 02:27:35;;;;;;;1.50;1.30;;;;;;;7.33;86.77;95734.33;1699472;84;20990;-72
2022/09/21 02:30:10;;;;;;;1.57;1.47;;;;;;;7.34;86.83;95739.13;1698820;84;21567;-72
2022/09/21 02:32:50;;;;;;;1.93;1.50;;;;;;;7.30;86.63;95736.06;1705541;82;21031;-71
2022/09/21 02:35:43;;;;;;;1.53;1.30;;;;;;;7.34;86.95;95740.00;1724484;83;21119;-72
2022/09/21 02:38:45;;;;;;;1.73;1.10;;;;;;;7.37;86.85;95736.04;1724356;82;21524;-72
2022/09/21 02:41:23;;;;;;;1.10;1.00;;;;;;;7.37;87.12;95734.73;1724555;82;21525;-72
2022/09/21 02:44:14;;;;;;;1.33;1.23;;;;;;;7.39;86.94;95737.80;1724373;82;21089;-72
2022/09/21 02:46:58;;;;;;;2.13;1.37;;;;;;;7.38;86.96;95736.91;1724229;83;21081;-72
2022/09/21 02:49:38;;;;;;;1.50;1.27;;;;;;;7.35;87.03;95741.73;1724442;83;21120;-72
2022/09/21 02:52:12;;;;;;;1.40;1.30;;;;;;;7.31;87.12;95743.08;1737903;82;21018;-72
2022/09/21 02:54:42;;;;;;;1.40;1.00;;;;;;;7.36;86.96;95750.50;1738123;82;21059;-72
2022/09/21 02:57:11;;;;;;;1.30;1.20;;;;;;;7.31;86.82;95741.77;1737905;82;21485;-72
2022/09/21 02:59:39;;;;;;;3.50;1.40;;;;;;;7.32;86.75;95740.87;1738037;82;21041;-71
2022/09/21 03:02:06;;;;;;;1.60;1.23;;;;;;;7.32;87.00;95742.19;1738291;82;21061;-72
2022/09/21 03:04:34;;;;;;;2.47;1.70;;;;;;;7.35;87.32;95748.73;1737969;82;21050;-72
2022/09/21 03:07:01;;;;;;;1.90;1.70;;;;;;;7.36;87.40;95746.56;1738079;82;20967;-72
2022/09/21 03:09:28;;;;;;;1.40;1.30;;;;;;;7.46;87.64;95750.00;1737953;82;21038;-71
2022/09/21 03:11:54;;;;;;;1.93;1.47;;;;;;;7.50;87.22;95746.05;1738071;82;21015;-72
2022/09/21 03:14:21;;;;;;;2.00;1.80;;;;;;;7.50;87.14;95746.49;1737831;82;21086;-72
2022/09/21 03:16:48;;;;;;;2.42;2.00;;;;;;;7.49;87.25;95752.64;1738001;82;21053;-72
2022/09/21 03:19:14;;;;;;;5.00;2.00;;;;;;;7.54;87.83;95745.61;1738208;82;21034;-72
2022/09/21 03:21:41;;;;;;;3.93;2.70;;;;;;;7.61;87.66;95750.38;1737861;82;21090;-72
2022/09/21 03:24:08;;;;;;;3.53;2.90;;;;;;;7.70;87.90;95752.97;1738105;82;21511;-72
2022/09/21 03:26:35;;;;;;;2.87;2.57;;;;;;;7.76;87.67;95756.45;1750690;82;21129;-72
2022/09/21 03:29:03;;;;;;;2.93;2.53;;;;;;;7.83;87.67;95764.28;1750928;82;21510;-72
2022/09/21 03:31:30;;;;;;;2.83;1.50;;;;;;;7.82;86.67;95763.42;1719202;83;21110;-72
2022/09/21 03:33:57;;;;;;;1.20;1.10;;;;;;;7.78;86.25;95761.67;1760354;81;21002;-72
2022/09/21 03:36:24;;;;;;;1.57;1.40;;;;;;;7.73;86.10;95760.38;1732878;82;20982;-72
2022/09/21 03:38:50;;;;;;;1.37;1.27;;;;;;;7.69;85.82;95757.80;1764433;81;21016;-72
2022/09/21 03:41:18;;;;;;;1.47;1.37;;;;;;;7.71;86.42;95755.60;1732592;82;21049;-71
2022/09/21 03:43:45;;;;;;;1.70;1.50;;;;;;;7.70;86.31;95756.47;1764563;81;21488;-71
2022/09/21 03:46:11;;;;;;;3.23;1.23;;;;;;;7.76;86.56;95763.43;1732766;83;21018;-71
2022/09/21 03:48:39;;;;;;;1.77;1.10;;;;;;;7.84;86.82;95758.14;1764776;81;21566;-68
2022/09/21 03:51:06;;;;;;;2.93;1.00;;;;;;;7.80;86.38;95756.84;1732569;83;20991;-72
2022/09/21 03:53:32;;;;;;;2.98;1.92;;;;;;;7.86;86.34;95761.63;1764447;81;21113;-72
2022/09/21 03:56:00;;;;;;;2.72;2.52;;;;;;;7.95;86.98;95753.27;1732741;83;21078;-70
2022/09/21 03:58:26;;;;;;;3.80;3.17;;;;;;;8.03;86.61;95755.40;1764345;81;21010;-69
2022/09/21 04:00:53;;;;;;;4.87;3.10;;;;;;;8.12;86.87;95755.80;1732576;83;21034;-69
2022/09/21 04:03:19;;;;;;;3.10;2.80;;;;;;;8.12;85.46;95759.74;1764849;81;20978;-70
2022/09/21 04:05:46;;;;;;;4.30;3.12;;;;;;;8.04;85.56;95757.61;1732802;82;20982;-69
2022/09/21 04:08:12;;;;;;;3.40;2.47;;;;;;;7.97;85.64;95752.83;1764849;81;21088;-69
2022/09/21 04:10:41;;;;;;;8.25;2.80;;;;;;;7.90;85.36;95760.30;1732740;82;21448;-69
2022/09/21 04:13:08;;;;;;;3.50;3.20;;;;;;;7.77;84.92;95759.95;1764267;81;21066;-69
2022/09/21 04:15:35;;;;;;;5.97;4.80;;;;;;;7.64;85.31;95757.82;1732561;82;21018;-69
2022/09/21 04:18:02;;;;;;;6.13;3.80;;;;;;;7.64;86.26;95756.51;1764415;81;21570;-69
2022/09/21 04:20:28;;;;;;;7.67;4.10;;;;;;;7.64;86.56;95770.95;1732723;83;20994;-69
2022/09/21 04:22:56;;;;;;;5.40;4.13;;;;;;;7.56;86.53;95767.05;1764276;81;21037;-69
2022/09/21 04:25:23;;;;;;;10.47;7.43;;;;;;;7.49;86.30;95771.02;1732861;83;21010;-69
2022/09/21 04:27:51;;;;;;;5.00;3.60;;;;;;;7.40;86.13;95777.16;1764434;81;21049;-69
2022/09/21 04:30:18;;;;;;;7.10;2.80;;;;;;;7.33;86.25;95781.57;1730220;82;21045;-69
2022/09/21 04:32:45;;;;;;;2.20;2.00;;;;;;;7.24;86.24;95780.27;1764114;81;21026;-69
2022/09/21 04:35:11;;;;;;;4.67;3.13;;;;;;;7.14;86.68;95780.73;1723685;82;21057;-69
2022/09/21 04:37:38;;;;;;;3.53;2.93;;;;;;;7.04;86.42;95780.77;1740195;82;21026;-69
2022/09/21 04:40:06;;;;;;;8.23;6.77;;;;;;;7.00;87.05;95779.88;1740328;82;21057;-69
2022/09/21 04:42:33;;;;;;;7.63;6.70;;;;;;;6.97;87.55;95785.58;1740362;82;21507;-70
2022/09/21 04:45:00;;;;;;;12.13;5.90;;;;;;;6.98;87.44;95787.31;1740565;82;21014;-70
2022/09/21 04:47:30;;;;;;;6.83;5.33;;;;;;;6.92;87.63;95789.07;1740352;82;21018;-70
2022/09/21 04:49:56;;;;;;;6.30;4.10;;;;;;;6.86;87.73;95794.78;1740345;82;21026;-70
2022/09/21 04:52:24;;;;;;;6.30;4.10;;;;;;;6.81;87.25;95794.78;1740665;82;20971;-69
2022/09/21 04:54:51;;;;;;;5.30;4.20;;;;;;;6.79;87.33;95799.59;1740060;82;21027;-69
2022/09/21 04:57:18;;;;;;;5.03;3.80;;;;;;;6.76;87.35;95802.22;1740427;82;21014;-71
2022/09/21 04:59:44;;;;;;;5.50;3.57;;;;;;;6.73;88.07;95795.23;1740540;82;20959;-69
2022/09/21 05:02:11;;;;;;;12.97;10.00;;;;;;;6.70;87.83;95796.11;1723126;82;21061;-63
2022/09/21 05:04:38;;;;;;;17.17;13.43;;;;;;;6.74;87.67;95802.21;1748222;80;21022;-66
2022/09/21 05:07:05;;;;;;;13.23;8.60;;;;;;;6.79;88.48;95799.15;1782404;80;21038;-76
2022/09/21 05:12:16;;;;;;;10.43;4.40;;;;;;;7.05;88.93;95808.29;1725111;82;21496;-76
2022/09/21 05:14:43;;;;;;;9.00;4.30;;;;;;;7.11;88.07;95807.43;1770187;80;21388;-67
2022/09/21 05:17:12;;;;;;;11.73;4.07;;;;;;;7.18;88.53;95810.45;1743339;81;21599;-70
2022/09/21 05:19:39;;;;;;;7.70;4.47;;;;;;;7.28;88.53;95812.20;1752478;81;21109;-71
2022/09/21 05:22:06;;;;;;;6.90;4.30;;;;;;;7.28;87.90;95806.06;1741145;81;21465;-71
2022/09/21 05:24:33;;;;;;;5.70;4.00;;;;;;;7.32;88.25;95807.81;1754179;81;21017;-84
2022/09/21 05:27:00;;;;;;;8.87;4.30;;;;;;;7.41;88.34;95806.48;1768753;81;21057;-67
2022/09/21 05:29:28;;;;;;;7.73;4.73;;;;;;;7.46;88.37;95809.07;1769661;81;21141;-74
2022/09/21 05:32:12;;;;;;;9.87;5.73;;;;;;;7.55;88.67;95811.23;1747768;81;21523;-69
2022/09/21 05:34:50;;;;;;;8.17;5.67;;;;;;;7.71;88.40;95812.48;1710840;82;21481;-72
2022/09/21 05:37:51;;;;;;;9.28;4.70;;;;;;;7.84;88.31;95809.36;1749090;81;21059;-78
2022/09/21 05:40:19;;;;;;;8.10;4.70;;;;;;;8.08;88.55;95811.88;1745678;82;21412;-71
2022/09/21 05:42:46;;;;;;;5.35;4.35;;;;;;;8.33;88.18;95819.63;1756291;81;21053;-72
2022/09/21 05:45:19;;;;;;;7.53;4.40;;;;;;;8.50;87.37;95816.93;1757486;81;20966;-68
2022/09/21 05:48:04;;;;;;;5.37;4.00;;;;;;;8.59;86.63;95811.58;1756607;81;20982;-72
2022/09/21 05:50:51;;;;;;;6.50;5.50;;;;;;;8.61;85.57;95814.63;1736747;82;21106;-65
2022/09/21 05:53:29;;;;;;;9.55;6.58;;;;;;;8.60;85.00;95812.90;1708481;83;21366;-75
2022/09/21 05:56:03;;;;;;;5.92;5.25;;;;;;;8.63;85.84;95812.87;1745621;82;21089;-69
2022/09/21 05:58:40;;;;;;;8.18;4.53;;;;;;;8.76;86.19;95811.46;1739722;82;21015;-67
2022/09/21 06:01:57;;;;;;;6.28;4.22;;;;;;;8.81;84.93;95813.16;1756670;81;21081;-71
2022/09/21 06:04:24;;;;;;;6.45;5.00;;;;;;;8.88;85.66;95816.17;1728938;82;21051;-69
2022/09/21 06:06:51;;;;;;;5.37;4.53;;;;;;;8.96;85.10;95814.80;1754547;82;20991;-67
2022/09/21 06:09:19;;;;;;;5.72;4.00;;;;;;;9.03;85.39;95815.17;1733539;82;21376;-66
2022/09/21 06:11:47;;;;;;;3.83;3.35;;;;;;;9.10;85.92;95805.47;1731752;82;21843;-65
2022/09/21 06:14:13;;;;;;;6.80;3.42;;;;;;;9.19;85.74;95808.45;1733889;82;20979;-68
2022/09/21 06:16:42;;;;;;;4.03;3.30;;;;;;;9.25;85.61;95812.36;1752372;81;21072;-65
2022/09/21 06:19:12;;;;;;;6.10;3.12;;;;;;;9.32;85.00;95808.74;1744453;81;21057;-65
2022/09/21 06:21:39;;;;;;;3.00;2.70;;;;;;;9.41;84.67;95812.61;1749195;81;21026;-69
2022/09/21 06:24:06;;;;;;;2.62;2.25;;;;;;;9.46;84.29;95810.80;1728003;82;21265;-65
2022/09/21 06:26:33;;;;;;;3.27;1.80;;;;;;;9.56;84.00;95812.02;1737917;82;21086;-67
2022/09/21 06:29:00;;;;;;;3.17;2.02;;;;;;;9.56;82.69;95814.66;1749973;81;20994;-67
2022/09/21 06:31:27;;;;;;;3.27;2.47;;;;;;;9.56;82.87;95812.02;1726554;82;21059;-66
2022/09/21 06:33:54;;;;;;;4.95;2.70;;;;;;;9.54;81.83;95810.26;1732104;82;21068;-69
2022/09/21 06:36:20;;;;;;;4.60;2.85;;;;;;;9.57;82.52;95814.63;1757234;81;21204;-68
2022/09/21 06:38:47;;;;;;;2.47;2.02;;;;;;;9.61;82.37;95812.39;1756896;81;21002;-72
2022/09/21 06:41:14;;;;;;;2.37;1.92;;;;;;;9.64;82.15;95814.13;1735093;82;21122;-68
2022/09/21 06:43:40;;;;;;;3.60;1.85;;;;;;;9.65;81.35;95815.85;1727624;81;21562;-72
2022/09/21 06:46:07;;;;;;;1.70;1.60;;;;;;;9.63;81.55;95815.02;1738490;82;21039;-74
2022/09/21 06:48:34;;;;;;;3.47;1.82;;;;;;;9.62;81.10;95826.43;1752989;81;21422;-67
2022/09/21 06:51:05;;;;;;;2.33;1.80;;;;;;;9.63;81.14;95826.42;1756744;81;21081;-67
2022/09/21 06:53:33;;;;;;;2.47;1.85;;;;;;;9.64;80.78;95828.61;1734971;82;21003;-76
2022/09/21 06:56:07;;;;;;;3.83;1.90;;;;;;;9.69;81.22;95818.89;1758683;81;21022;-75
2022/09/21 06:58:36;;;;;;;7.03;2.02;;;;;;;9.77;81.37;95824.07;1756630;82;21051;-69
2022/09/21 07:01:07;;;;;;;3.67;1.87;;;;;;;9.82;80.78;95827.52;1740019;82;20976;-69
2022/09/21 07:03:35;;;;;;;8.73;1.80;;;;;;;9.87;81.09;95830.52;1739442;82;21066;-70
2022/09/21 07:06:02;;;;;;;2.00;1.82;;;;;;;9.93;80.98;95829.59;1736700;82;21019;-72
2022/09/21 07:08:29;;;;;;;8.58;2.30;;;;;;;10.00;81.00;95833.02;1737977;82;21027;-71
2022/09/21 07:10:59;;;;;;;4.53;2.08;;;;;;;10.07;80.84;95838.19;1740173;82;21007;-70
2022/09/21 07:13:27;;;;;;;4.85;2.08;;;;;;;10.15;80.68;95842.04;1739830;82;21035;-70
2022/09/21 07:15:54;;;;;;;8.50;1.55;;;;;;;10.25;80.49;95838.84;1734614;82;21785;-65
2022/09/21 07:18:21;;;;;;;5.97;1.70;;;;;;;10.36;80.14;95831.70;1744768;81;21060;-65
2022/09/21 07:20:48;;;;;;;1.75;1.50;;;;;;;10.48;80.34;95826.27;1726592;82;21065;-71
2022/09/21 07:23:18;;;;;;;3.50;1.90;;;;;;;10.58;79.52;95831.83;1754740;81;21085;-72
2022/09/21 07:25:49;;;;;;;9.30;2.50;;;;;;;10.70;79.47;95832.06;1740554;82;21012;-71
2022/09/21 07:28:16;;;;;;;2.77;2.10;;;;;;;10.80;78.92;95826.20;1740260;82;21098;-71
2022/09/21 07:30:43;;;;;;;6.35;3.22;;;;;;;10.91;79.22;95834.84;1757147;81;21072;-72
2022/09/21 07:33:10;;;;;;;4.00;2.30;;;;;;;11.03;79.09;95832.42;1734785;82;21000;-68
2022/09/21 07:35:37;;;;;;;4.67;2.30;;;;;;;11.12;78.72;95831.42;1738706;82;20980;-70
2022/09/21 07:38:07;;;;;;;7.33;3.25;;;;;;;11.18;77.98;95827.34;1757812;81;20974;-70
2022/09/21 07:40:35;;;;;;;6.00;3.05;;;;;;;11.17;76.57;95831.76;1741248;82;21504;-69
2022/09/21 07:43:02;;;;;;;8.35;4.20;;;;;;;11.12;76.52;95830.96;1739385;82;21039;-69
2022/09/21 07:45:30;;;;;;;10.50;8.33;;;;;;;11.08;76.62;95834.54;1740023;82;21008;-68
2022/09/21 07:48:07;;;;;;;4.83;3.33;;;;;;;11.10;76.59;95831.89;1741026;82;21035;-69
2022/09/21 07:50:34;;;;;;;2.62;1.80;;;;;;;11.29;76.95;95823.18;1756596;81;20995;-70
2022/09/21 07:53:03;;;;;;;4.22;1.98;;;;;;;11.61;77.42;95812.89;1757059;81;21073;-79
2022/09/21 07:55:31;;;;;;;3.17;2.35;;;;;;;11.82;75.11;95820.02;1740197;82;21023;-69
2022/09/21 08:00:43;;;;;;;2.47;1.60;;;;;;;12.18;73.41;95826.34;1737407;82;21056;-75
2022/09/21 08:03:10;;;;;;;5.33;2.00;;;;;;;12.34;72.45;95831.70;1737909;82;21000;-74
2022/09/21 08:05:37;;;;;;;3.20;2.15;;;;;;;12.50;72.81;95829.61;1720699;82;21032;-73
2022/09/21 08:08:04;;;;;;;4.05;2.12;;;;;;;12.61;72.25;95829.83;1737536;82;21047;-73
2022/09/21 08:10:31;;;;;;;2.75;2.00;;;;;;;12.67;68.61;95831.86;1740905;82;21090;-73
2022/09/21 08:12:58;;;;;;;3.50;1.85;;;;;;;12.67;68.61;95831.86;1736876;82;21024;-71
2022/09/21 08:15:26;;;;;;;3.25;2.02;;;;;;;12.64;67.73;95831.94;1727804;82;21145;-72
2022/09/21 08:17:54;;;;;;;2.67;1.90;;;;;;;12.61;69.50;95829.36;1740242;82;21062;-73
2022/09/21 08:20:21;;;;;;;2.12;1.92;;;;;;;12.55;68.16;95830.84;1756524;81;21072;-72
2022/09/21 08:22:48;;;;;;;2.75;1.72;;;;;;;12.51;68.83;95829.16;1752127;81;21013;-69
2022/09/21 08:25:15;;;;;;;1.60;1.50;;;;;;;12.52;68.57;95828.23;1756697;81;21034;-74
2022/09/21 08:27:42;;;;;;;2.30;1.92;;;;;;;12.66;69.54;95833.23;1739940;82;21086;-74
2022/09/21 08:30:12;;;;;;;2.58;2.10;;;;;;;12.89;68.02;95828.27;1729559;82;21054;-65
2022/09/21 08:32:38;;;;;;;5.67;2.33;;;;;;;13.10;68.35;95829.97;1746207;81;21389;-78
2022/09/21 08:35:06;;;;;;;3.58;1.75;;;;;;;13.32;67.95;95818.42;1739625;82;21021;-64
2022/09/21 08:37:35;;;;;;;2.40;1.50;;;;;;;13.52;65.68;95823.20;1766209;80;22363;-70
2022/09/21 08:40:05;;;;;;;2.83;1.75;;;;;;;13.52;65.68;95823.20;1781589;80;21042;-74
2022/09/21 08:43:01;;;;;;;3.62;1.80;;;;;;;13.63;64.95;95823.77;1786844;80;21509;-77
2022/09/21 08:45:36;;;;;;;2.75;1.67;;;;;;;13.79;65.71;95814.97;1772290;80;20971;-70
2022/09/21 08:48:11;;;;;;;2.30;1.85;;;;;;;14.02;66.45;95827.58;1785801;80;21485;-73
2022/09/21 08:50:51;;;;;;;3.92;2.15;;;;;;;13.95;64.65;95826.02;1785927;80;21513;-66
2022/09/21 08:53:36;;;;;;;2.50;2.20;;;;;;;13.89;65.32;95826.20;1784855;80;21042;-73
2022/09/21 08:56:03;;;;;;;3.87;2.40;;;;;;;13.91;65.06;95823.02;1785270;80;20952;-68
2022/09/21 08:58:31;;;;;;;4.37;2.70;;;;;;;14.03;65.23;95823.54;1770396;80;20984;-72
2022/09/21 09:01:22;;;;;;;5.28;3.77;;;;;;;14.14;65.63;95830.35;1783690;80;21022;-80
2022/09/21 09:04:36;;;;;;;5.58;4.37;;;;;;;13.99;64.50;95832.52;1782515;80;21026;-69
2022/09/21 09:07:18;;;;;;;3.60;3.20;;;;;;;13.64;65.06;95833.02;1766930;80;21003;-65
2022/09/21 09:10:01;;;;;;;2.60;2.40;;;;;;;13.71;65.44;95827.55;1703620;82;21033;-65
2022/09/21 09:12:55;;;;;;;3.60;2.77;;;;;;;13.71;65.44;95827.55;1769653;80;21089;-70
2022/09/21 09:15:47;;;;;;;3.60;2.55;;;;;;;13.92;65.87;95827.43;1779283;80;22347;-70
2022/09/21 09:18:44;;;;;;;5.67;2.42;;;;;;;14.18;64.58;95818.72;1786472;80;21034;-69
2022/09/21 09:21:25;;;;;;;3.12;2.83;;;;;;;14.37;63.38;95818.59;1786316;80;21078;-70
2022/09/21 09:24:20;;;;;;;2.60;2.40;;;;;;;14.35;62.29;95821.75;1786679;80;21002;-69
2022/09/21 09:26:52;;;;;;;3.22;2.60;;;;;;;14.28;61.37;95820.19;1770751;80;21559;-72
2022/09/21 09:30:02;;;;;;;5.65;3.05;;;;;;;14.28;62.70;95822.38;1785688;80;21166;-71
2022/09/21 09:32:52;;;;;;;4.42;2.35;;;;;;;14.32;61.77;95813.02;1785570;80;21075;-70
2022/09/21 09:35:27;;;;;;;2.98;2.02;;;;;;;14.30;61.25;95814.38;1759535;80;20987;-70
2022/09/21 09:38:14;;;;;;;2.02;1.80;;;;;;;14.49;62.81;95814.25;1787555;80;20991;-71
2022/09/21 09:41:01;;;;;;;2.42;2.10;;;;;;;14.74;60.99;95817.95;1787662;80;21033;-71
2022/09/21 09:43:45;;;;;;;1.92;1.72;;;;;;;15.06;61.09;95808.48;1787608;80;21054;-71
2022/09/21 09:46:33;;;;;;;2.52;2.30;;;;;;;15.34;59.20;95802.25;1787960;80;20952;-70
2022/09/21 09:49:14;;;;;;;2.62;2.42;;;;;;;15.34;59.08;95807.10;1787489;80;21026;-70
2022/09/21 09:51:42;;;;;;;2.10;1.92;;;;;;;15.38;57.82;95801.23;1784701;80;21049;-69
2022/09/21 09:54:16;;;;;;;3.90;2.30;;;;;;;15.40;57.28;95800.73;1786791;80;21011;-69
2022/09/21 09:56:43;;;;;;;4.10;2.20;;;;;;;15.08;56.48;95800.02;1787264;80;20959;-69
2022/09/21 09:59:47;;;;;;;2.55;2.35;;;;;;;14.69;57.61;95803.05;1787227;80;21015;-70
2022/09/21 10:02:26;;;;;;;2.40;2.20;;;;;;;14.40;58.16;95803.03;1787802;80;21021;-70
2022/09/21 10:05:04;;;;;;;3.20;2.52;;;;;;;14.03;59.51;95811.60;1786930;80;21511;-70
2022/09/21 10:07:41;;;;;;;2.65;2.05;;;;;;;13.90;60.10;95811.55;1787898;80;21452;-70
2022/09/21 10:10:37;;;;;;;2.25;1.92;;;;;;;13.84;60.86;95812.59;1787502;80;21015;-69
2022/09/21 10:13:32;;;;;;;2.72;1.90;;;;;;;13.97;61.54;95802.50;1757354;80;20998;-70
2022/09/21 10:16:06;;;;;;;4.35;2.00;;;;;;;14.09;62.35;95799.97;1787648;80;21496;-70
2022/09/21 10:18:46;;;;;;;3.87;2.12;;;;;;;14.37;60.83;95797.83;1756912;80;21014;-70
2022/09/21 10:21:23;;;;;;;1.95;1.32;;;;;;;14.81;60.74;95795.13;1775381;80;21054;-70
2022/09/21 10:23:58;;;;;;;2.08;1.82;;;;;;;15.18;59.93;95800.58;1787792;80;20998;-69
2022/09/21 10:26:31;;;;;;;1.62;1.40;;;;;;;15.19;60.56;95799.65;1787699;80;21464;-70
2022/09/21 10:29:24;;;;;;;1.40;1.30;;;;;;;15.36;59.50;95798.63;1787622;80;21027;-71
2022/09/21 10:32:00;;;;;;;3.52;1.85;;;;;;;15.31;56.64;95795.25;1787723;80;21026;-70
2022/09/21 10:34:30;;;;;;;2.40;1.62;;;;;;;15.27;56.44;95792.31;1787510;80;21501;-69
2022/09/21 10:37:01;;;;;;;1.62;1.52;;;;;;;15.59;58.12;95792.97;1791008;80;21102;-70
2022/09/21 10:39:34;;;;;;;1.77;1.67;;;;;;;15.91;55.13;95791.00;1791036;80;21506;-70
2022/09/21 10:42:04;;;;;;;;;;;;;;;16.08;55.02;95787.73;1793756;80;21013;-70
2022/09/21 10:44:39;;;;;;;1.60;1.50;;;;;;;16.50;57.64;95785.67;1790998;80;20112;-71
2022/09/21 10:47:23;;;;;;;1.80;1.57;;;;;;;16.44;54.51;95787.65;1791007;80;20994;-71
2022/09/21 10:49:53;;;;;;;2.55;2.20;;;;;;;16.23;54.60;95784.49;1773734;80;21524;-71
2022/09/21 10:52:25;;;;;;;7.20;4.12;;;;;;;15.95;54.99;95784.19;1790450;80;21014;-70
2022/09/21 10:54:55;;;;;;;8.80;4.90;;;;;;;15.65;54.66;95791.88;1791178;80;21468;-70
2022/09/21 10:57:25;;;;;;;2.87;2.60;;;;;;;15.32;55.47;95794.78;1790927;80;21052;-70
2022/09/21 10:59:51;;;;;;;2.25;2.05;;;;;;;15.05;55.53;95793.94;1791287;80;21014;-69
2022/09/21 11:02:35;;;;;;;5.62;2.83;;;;;;;14.76;56.88;95797.53;1790727;80;20987;-69
2022/09/21 11:05:16;;;;;;;2.67;2.35;;;;;;;14.62;57.83;95793.53;1790893;80;20966;-69
2022/09/21 11:08:05;;;;;;;2.30;2.10;;;;;;;14.43;58.27;95796.30;1790983;80;21535;-69
2022/09/21 11:10:46;;;;;;;3.52;1.90;;;;;;;14.17;58.81;95791.31;1791025;80;21046;-70
2022/09/21 11:13:53;;;;;;;2.00;1.90;;;;;;;14.13;60.80;95796.29;1791136;80;21015;-69
2022/09/21 11:16:34;;;;;;;3.40;2.27;;;;;;;14.16;61.11;95788.27;1790921;80;21496;-69
2022/09/21 11:19:21;;;;;;;2.95;2.35;;;;;;;14.22;60.55;95786.74;1790577;80;21078;-70
2022/09/21 11:22:16;;;;;;;3.05;2.50;;;;;;;14.47;59.61;95780.23;1791235;80;20963;-69
2022/09/21 11:25:00;;;;;;;4.67;3.55;;;;;;;14.45;58.47;95782.52;1790726;80;20987;-69
2022/09/21 11:27:38;;;;;;;4.47;3.02;;;;;;;14.23;59.27;95782.30;1731509;80;21530;-69
2022/09/21 11:30:15;;;;;;;3.45;2.60;;;;;;;14.04;59.70;95787.29;1790849;80;20998;-69
2022/09/21 11:33:06;;;;;;;4.03;2.85;;;;;;;13.82;60.00;95785.23;1790990;80;21444;-69
2022/09/21 11:36:02;;;;;;;3.77;2.40;;;;;;;13.66;61.13;95779.97;1788534;80;21022;-69
2022/09/21 11:38:42;;;;;;;2.33;2.10;;;;;;;13.51;61.39;95781.72;1770857;80;21532;-69
2022/09/21 11:41:13;;;;;;;2.67;2.00;;;;;;;14.11;62.65;95773.37;1768555;80;21050;-69
2022/09/21 11:44:10;;;;;;;1.75;1.65;;;;;;;15.36;61.11;95772.50;1768498;80;21015;-70
2022/09/21 11:47:10;;;;;;;2.15;1.60;;;;;;;16.41;54.42;95765.61;1768218;80;20976;-70
2022/09/21 11:49:54;;;;;;;1.80;1.70;;;;;;;17.21;51.50;95751.30;1764032;81;21508;-70
2022/09/21 11:53:01;;;;;;;2.95;1.70;;;;;;;18.09;50.52;95754.14;1768376;81;21508;-71
2022/09/21 11:55:48;;;;;;;1.95;1.50;;;;;;;18.89;47.35;95743.73;1768398;80;21019;-71
2022/09/21 11:58:47;;;;;;;3.35;1.60;;;;;;;19.08;43.31;95744.58;1767822;81;21011;-71
2022/09/21 12:01:49;;;;;;;1.47;1.37;;;;;;;19.74;46.37;95743.91;1768229;80;21075;-71
2022/09/21 12:04:42;;;;;;;2.07;1.23;;;;;;;20.27;41.78;95736.64;1768250;81;21061;-71
2022/09/21 12:07:36;;;;;;;2.52;1.50;;;;;;;20.71;40.02;95727.95;1768734;80;21003;-71
2022/09/21 12:10:15;;;;;;;2.40;1.40;;;;;;;21.06;41.08;95733.13;1768474;81;21023;-71
2022/09/21 12:12:53;;;;;;;1.87;1.45;;;;;;;20.12;39.76;95743.69;1768208;80;21027;-71
2022/09/21 12:15:29;;;;;;;1.87;1.60;;;;;;;19.31;41.26;95743.89;1768642;80;20983;-70
2022/09/21 12:18:26;;;;;;;3.30;1.90;;;;;;;18.29;42.59;95747.41;1767905;81;20999;-70
2022/09/21 12:21:10;;;;;;;2.37;2.12;;;;;;;17.68;44.68;95753.70;1765924;81;21029;-70